Time;durP1;ratioP1;P1;durP2;ratioP2;P2;SDS_P1;SDS_P2;PMS_P1;PMS_P2;Temp;Humidity;BMP_temperature;BMP_pressure;BME280_temperature;BME280_humidity;BME280_pressure;Samples;Min_cycle;Max_cycle;Signal;HPM_P1;HPM_P2
2023/09/15 00:00:14;;;;;;;3.03;2.60;;;15.70;99.90;;;;;;5202812;28;20313;-64
2023/09/15 00:02:46;;;;;;;2.92;2.63;;;15.70;99.90;;;;;;5235395;28;20044;-66
2023/09/15 00:05:18;;;;;;;3.38;2.40;;;15.80;99.90;;;;;;5203943;28;20040;-62
2023/09/15 00:07:53;;;;;;;2.22;2.03;;;15.70;99.90;;;;;;5232918;28;20038;-62
2023/09/15 00:10:26;;;;;;;21.50;3.92;;;15.70;99.90;;;;;;5201766;28;20051;-66
2023/09/15 00:12:58;;;;;;;4.20;3.28;;;15.70;99.90;;;;;;5177430;28;20041;-65
2023/09/15 00:15:32;;;;;;;2.92;2.63;;;15.60;99.90;;;;;;5217686;28;20028;-66
2023/09/15 00:18:03;;;;;;;6.63;2.58;;;15.60;99.90;;;;;;5204305;28;20048;-63
2023/09/15 00:20:35;;;;;;;3.88;2.80;;;15.50;99.90;;;;;;5240665;28;20035;-65
2023/09/15 00:23:11;;;;;;;3.92;2.60;;;15.50;99.90;;;;;;5224934;28;20450;-65
2023/09/15 00:25:46;;;;;;;3.35;2.65;;;15.50;99.90;;;;;;5232466;28;20253;-62
2023/09/15 00:28:18;;;;;;;5.47;2.72;;;15.40;99.90;;;;;;5224581;28;20036;-66
2023/09/15 00:30:50;;;;;;;3.25;2.70;;;15.40;99.90;;;;;;5222275;28;20028;-64
2023/09/15 00:33:21;;;;;;;3.40;2.90;;;15.40;99.90;;;;;;5208242;28;20044;-64
2023/09/15 00:35:52;;;;;;;2.95;2.60;;;15.40;99.90;;;;;;5190791;28;20036;-62
2023/09/15 00:38:26;;;;;;;4.30;2.67;;;15.40;99.90;;;;;;5238079;28;20032;-64
2023/09/15 00:40:57;;;;;;;3.87;2.70;;;15.40;99.90;;;;;;5216704;28;20041;-64
2023/09/15 00:43:31;;;;;;;3.83;2.70;;;15.40;99.90;;;;;;5202872;28;20031;-62
2023/09/15 00:46:09;;;;;;;4.15;2.85;;;15.40;99.90;;;;;;5189360;28;20036;-64
2023/09/15 00:48:41;;;;;;;3.67;2.63;;;15.50;99.90;;;;;;5204305;28;20036;-64
2023/09/15 00:51:12;;;;;;;3.78;2.90;;;15.50;99.90;;;;;;5219522;28;20033;-65
2023/09/15 00:53:45;;;;;;;2.70;2.50;;;15.40;99.90;;;;;;5221652;28;20021;-63
2023/09/15 00:56:17;;;;;;;3.22;2.42;;;15.50;99.90;;;;;;5241893;28;20028;-63
2023/09/15 00:58:50;;;;;;;3.72;2.75;;;15.50;99.90;;;;;;5241538;28;20096;-67
2023/09/15 01:01:21;;;;;;;3.20;2.90;;;15.40;99.90;;;;;;5310706;22;20043;-65
2023/09/15 01:03:53;;;;;;;3.45;2.25;;;15.40;99.90;;;;;;5224772;28;20029;-63
2023/09/15 01:06:27;;;;;;;2.83;2.47;;;15.30;99.90;;;;;;5187085;28;20035;-65
2023/09/15 01:08:59;;;;;;;2.83;2.63;;;15.20;99.90;;;;;;5225818;28;20028;-65
2023/09/15 01:11:33;;;;;;;2.95;2.40;;;15.20;99.90;;;;;;5243595;28;20051;-64
2023/09/15 01:14:04;;;;;;;2.88;2.58;;;15.10;99.90;;;;;;5242629;28;20032;-66
2023/09/15 01:16:50;;;;;;;3.65;2.92;;;15.00;99.90;;;;;;5190215;28;20395;-66
2023/09/15 01:19:54;;;;;;;4.82;2.90;;;14.90;99.90;;;;;;5225435;28;20071;-66
2023/09/15 01:22:40;;;;;;;3.13;2.65;;;14.80;99.90;;;;;;5214158;28;20044;-67
2023/09/15 01:25:26;;;;;;;3.10;2.80;;;14.70;99.90;;;;;;5234339;28;20029;-66
2023/09/15 01:28:39;;;;;;;3.75;2.97;;;14.50;99.90;;;;;;5213839;28;20043;-65
2023/09/15 01:31:13;;;;;;;4.60;2.58;;;14.50;99.90;;;;;;5231956;28;20037;-63
2023/09/15 01:33:49;;;;;;;2.85;2.47;;;14.40;99.90;;;;;;5224153;28;20048;-67
2023/09/15 01:36:20;;;;;;;3.63;3.03;;;14.30;99.90;;;;;;5207611;28;20029;-66
2023/09/15 01:38:52;;;;;;;3.42;2.33;;;14.20;99.90;;;;;;5242900;28;20039;-63
2023/09/15 01:41:23;;;;;;;4.07;2.72;;;14.20;99.90;;;;;;5221176;28;20041;-67
2023/09/15 01:43:54;;;;;;;6.28;3.08;;;14.20;99.90;;;;;;5201760;28;20037;-64
2023/09/15 01:46:28;;;;;;;2.75;2.55;;;14.20;99.90;;;;;;5184582;28;20119;-64
2023/09/15 01:49:02;;;;;;;3.78;3.20;;;14.20;99.90;;;;;;5186558;28;20040;-63
2023/09/15 01:51:34;;;;;;;4.03;3.22;;;14.20;99.90;;;;;;5194778;28;20029;-65
2023/09/15 01:54:06;;;;;;;4.07;3.28;;;14.20;99.90;;;;;;5204312;28;20049;-66
2023/09/15 01:56:40;;;;;;;4.05;3.13;;;14.20;99.90;;;;;;5232608;28;20037;-66
2023/09/15 01:59:21;;;;;;;3.50;3.00;;;14.20;99.90;;;;;;5219568;28;20051;-66
2023/09/15 02:01:59;;;;;;;5.15;3.28;;;14.20;99.90;;;;;;5208994;28;20048;-65
2023/09/15 02:04:30;;;;;;;3.53;3.22;;;14.10;99.90;;;;;;5241123;28;20032;-61
2023/09/15 02:07:01;;;;;;;3.22;2.85;;;14.10;99.90;;;;;;5241569;28;20032;-66
2023/09/15 02:09:32;;;;;;;3.42;2.65;;;14.00;99.90;;;;;;5223003;28;20028;-67
2023/09/15 02:12:06;;;;;;;3.70;3.03;;;14.00;99.90;;;;;;5236766;28;20041;-67
2023/09/15 02:14:38;;;;;;;4.28;3.40;;;14.10;99.90;;;;;;5206159;28;20233;-64
2023/09/15 02:17:13;;;;;;;3.90;3.28;;;14.10;99.90;;;;;;5238294;28;20036;-65
2023/09/15 02:19:49;;;;;;;5.55;3.83;;;14.20;99.90;;;;;;5212442;28;20044;-65
2023/09/15 02:22:21;;;;;;;5.28;2.60;;;14.20;99.90;;;;;;5247489;28;20033;-66
2023/09/15 02:24:54;;;;;;;3.83;3.20;;;14.20;99.90;;;;;;5221070;28;20546;-65
2023/09/15 02:27:30;;;;;;;4.00;3.10;;;14.20;99.90;;;;;;5206936;28;20631;-65
2023/09/15 02:30:02;;;;;;;3.78;3.08;;;14.10;99.90;;;;;;5242105;28;20025;-64
2023/09/15 02:32:34;;;;;;;4.65;3.20;;;14.10;99.90;;;;;;5221593;28;20048;-65
2023/09/15 02:35:06;;;;;;;4.40;3.20;;;14.00;99.90;;;;;;5241531;28;20046;-67
2023/09/15 02:37:40;;;;;;;3.78;3.03;;;14.10;99.90;;;;;;5204077;28;20099;-66
2023/09/15 02:40:17;;;;;;;3.85;3.35;;;14.00;99.90;;;;;;5209831;28;20040;-64
2023/09/15 02:42:50;;;;;;;4.78;3.47;;;14.00;99.90;;;;;;5185606;28;20352;-62
2023/09/15 02:45:22;;;;;;;4.50;3.83;;;13.90;99.90;;;;;;5204704;28;20040;-64
2023/09/15 02:47:55;;;;;;;5.43;3.50;;;13.90;99.90;;;;;;5202709;28;20560;-67
2023/09/15 02:50:27;;;;;;;5.72;3.53;;;13.90;99.90;;;;;;5205011;28;20029;-58
2023/09/15 02:53:13;;;;;;;3.83;3.53;;;13.80;99.90;;;;;;5206213;28;20028;-65
2023/09/15 02:55:59;;;;;;;4.22;3.83;;;13.80;99.90;;;;;;5201308;28;20032;-65
2023/09/15 02:58:31;;;;;;;4.43;3.55;;;13.70;99.90;;;;;;5233917;28;20027;-67
2023/09/15 03:01:13;;;;;;;3.15;2.85;;;13.70;99.90;;;;;;5254422;28;20040;-67
2023/09/15 03:03:46;;;;;;;3.90;3.50;;;13.50;99.90;;;;;;5206650;28;20047;-64
2023/09/15 03:06:17;;;;;;;4.63;3.53;;;13.50;99.90;;;;;;5206463;28;20079;-64
2023/09/15 03:08:49;;;;;;;4.88;4.28;;;13.50;99.90;;;;;;5222892;28;20037;-66
2023/09/15 03:11:21;;;;;;;4.97;3.58;;;13.50;99.90;;;;;;5220984;28;20350;-65
2023/09/15 03:13:52;;;;;;;5.03;3.38;;;13.40;99.90;;;;;;5214454;28;20485;-67
2023/09/15 03:16:26;;;;;;;6.05;4.10;;;13.40;99.90;;;;;;5203475;28;20553;-63
2023/09/15 03:18:57;;;;;;;5.18;4.05;;;13.40;99.90;;;;;;5222030;28;20032;-65
2023/09/15 03:21:30;;;;;;;4.65;3.72;;;13.40;99.90;;;;;;5226160;28;20046;-64
2023/09/15 03:24:01;;;;;;;5.72;4.57;;;13.40;99.90;;;;;;5235205;28;20028;-65
2023/09/15 03:26:32;;;;;;;6.20;4.70;;;13.40;99.90;;;;;;5205690;28;20033;-64
2023/09/15 03:29:03;;;;;;;5.78;4.55;;;13.40;99.90;;;;;;5244497;28;20061;-65
2023/09/15 03:31:37;;;;;;;5.68;4.80;;;13.40;99.90;;;;;;5188955;28;20059;-65
2023/09/15 03:34:08;;;;;;;7.50;4.88;;;13.40;99.90;;;;;;5201293;28;20038;-63
2023/09/15 03:36:40;;;;;;;7.35;5.43;;;13.40;99.90;;;;;;5234547;28;20032;-64
2023/09/15 03:39:16;;;;;;;5.75;4.15;;;13.40;99.90;;;;;;5235904;28;20032;-62
2023/09/15 03:41:50;;;;;;;7.40;4.60;;;13.40;99.90;;;;;;5220525;28;20029;-63
2023/09/15 03:44:23;;;;;;;6.72;5.22;;;13.50;99.90;;;;;;5219772;28;20041;-62
2023/09/15 03:46:54;;;;;;;7.97;4.87;;;13.40;99.90;;;;;;5193530;28;20036;-64
2023/09/15 03:49:26;;;;;;;6.03;4.68;;;13.40;99.90;;;;;;5261307;28;20476;-66
2023/09/15 03:51:57;;;;;;;5.50;4.10;;;13.30;99.90;;;;;;5244589;28;20418;-66
2023/09/15 03:54:28;;;;;;;7.30;4.88;;;13.30;99.90;;;;;;5209895;28;20036;-63
2023/09/15 03:56:59;;;;;;;6.35;4.32;;;13.20;99.90;;;;;;5238689;28;20529;-66
2023/09/15 03:59:34;;;;;;;6.38;4.75;;;13.20;99.90;;;;;;5223679;28;20025;-67
2023/09/15 04:02:05;;;;;;;12.00;4.82;;;13.20;99.90;;;;;;5197172;28;20044;-63
2023/09/15 04:04:37;;;;;;;9.45;5.47;;;13.20;99.90;;;;;;5227058;28;20044;-66
2023/09/15 04:07:08;;;;;;;7.30;5.25;;;13.10;99.90;;;;;;5245006;28;20028;-65
2023/09/15 04:09:39;;;;;;;7.53;4.63;;;13.10;99.90;;;;;;5209457;28;20058;-62
2023/09/15 04:12:12;;;;;;;7.80;5.07;;;13.10;99.90;;;;;;5226547;28;20034;-65
2023/09/15 04:14:44;;;;;;;7.07;5.17;;;13.10;99.90;;;;;;5221166;28;20271;-65
2023/09/15 04:17:15;;;;;;;10.68;5.38;;;13.10;99.90;;;;;;5205945;28;20041;-65
2023/09/15 04:19:46;;;;;;;6.88;4.80;;;13.20;99.90;;;;;;5210062;28;20039;-66
2023/09/15 04:22:22;;;;;;;7.43;5.70;;;13.20;99.90;;;;;;5225676;28;20021;-63
2023/09/15 04:24:57;;;;;;;8.27;6.05;;;13.20;99.90;;;;;;5189870;28;20051;-67
2023/09/15 04:27:33;;;;;;;7.25;5.35;;;13.20;99.90;;;;;;5182818;28;20040;-63
2023/09/15 04:30:04;;;;;;;7.00;5.78;;;13.20;99.90;;;;;;5190123;28;20036;-68
2023/09/15 04:32:36;;;;;;;7.93;5.00;;;13.30;99.90;;;;;;5223961;28;20038;-65
2023/09/15 04:35:10;;;;;;;8.07;5.97;;;13.20;99.90;;;;;;5192151;28;20036;-66
2023/09/15 04:37:41;;;;;;;8.60;5.78;;;13.30;99.90;;;;;;5209238;28;20028;-64
2023/09/15 04:40:12;;;;;;;10.35;5.32;;;13.30;99.90;;;;;;5224164;28;20043;-65
2023/09/15 04:42:45;;;;;;;9.15;5.70;;;13.30;99.90;;;;;;5238829;28;20036;-64
2023/09/15 04:45:16;;;;;;;10.13;6.38;;;13.30;99.90;;;;;;5223092;28;20040;-64
2023/09/15 04:47:47;;;;;;;8.02;5.88;;;13.30;99.90;;;;;;5208121;28;20020;-66
2023/09/15 04:50:19;;;;;;;7.13;5.20;;;13.30;99.90;;;;;;5205343;28;20033;-66
2023/09/15 04:52:51;;;;;;;8.73;6.20;;;13.30;99.90;;;;;;5216115;28;20048;-66
2023/09/15 04:55:23;;;;;;;7.22;5.07;;;13.40;99.90;;;;;;5221505;28;20043;-65
2023/09/15 04:57:54;;;;;;;8.35;5.25;;;13.50;99.90;;;;;;5221723;28;20038;-65
2023/09/15 05:00:34;;;;;;;8.43;5.25;;;13.60;99.90;;;;;;5201285;28;20027;-67
2023/09/15 05:03:08;;;;;;;7.85;5.03;;;13.60;99.90;;;;;;5238356;28;20040;-65
2023/09/15 05:05:39;;;;;;;6.75;5.20;;;13.80;99.90;;;;;;5203260;28;20048;-65
2023/09/15 05:08:10;;;;;;;6.32;4.63;;;13.90;99.90;;;;;;5238552;28;20029;-68
2023/09/15 05:10:41;;;;;;;8.07;5.10;;;14.00;99.90;;;;;;5221387;28;20040;-65
2023/09/15 05:13:13;;;;;;;8.18;4.53;;;14.10;99.90;;;;;;5204531;28;20039;-65
2023/09/15 05:15:44;;;;;;;7.35;4.65;;;14.30;99.90;;;;;;5203376;28;20092;-65
2023/09/15 05:18:15;;;;;;;7.30;4.70;;;14.40;99.90;;;;;;5221084;28;20029;-63
2023/09/15 05:20:46;;;;;;;6.68;5.05;;;14.60;99.90;;;;;;5237628;28;20320;-62
2023/09/15 05:23:20;;;;;;;6.47;4.88;;;14.70;99.90;;;;;;5204967;28;20028;-64
2023/09/15 05:25:54;;;;;;;5.30;4.70;;;14.90;99.90;;;;;;5238301;28;20051;-64
2023/09/15 05:28:28;;;;;;;5.43;4.43;;;14.90;99.90;;;;;;5205353;28;20036;-64
2023/09/15 05:31:04;;;;;;;5.43;4.45;;;15.10;99.90;;;;;;5239212;28;20410;-64
2023/09/15 05:33:39;;;;;;;5.55;4.55;;;15.30;99.90;;;;;;5239370;28;20028;-67
2023/09/15 05:36:10;;;;;;;6.05;4.55;;;15.30;99.90;;;;;;5205365;28;20039;-65
2023/09/15 05:38:43;;;;;;;5.93;4.40;;;15.50;99.90;;;;;;5239468;28;20135;-61
2023/09/15 05:41:15;;;;;;;6.05;4.68;;;15.60;99.90;;;;;;5204719;28;20092;-62
2023/09/15 05:43:46;;;;;;;5.43;3.75;;;15.70;99.90;;;;;;5221152;28;20025;-64
2023/09/15 05:46:19;;;;;;;5.68;4.15;;;15.90;99.90;;;;;;5219933;28;20041;-64
2023/09/15 05:48:50;;;;;;;6.65;4.57;;;16.10;99.90;;;;;;5204110;28;20032;-66
2023/09/15 05:51:24;;;;;;;6.18;4.20;;;16.20;1.00;;;;;;5237495;28;20029;-63
2023/09/15 05:53:55;;;;;;;6.73;4.23;;;16.30;1.00;;;;;;5204245;28;20043;-64
2023/09/15 05:56:29;;;;;;;5.93;4.47;;;16.40;1.00;;;;;;5238507;28;20024;-63
2023/09/15 05:59:00;;;;;;;6.35;4.65;;;16.50;1.00;;;;;;5220437;28;20323;-67
2023/09/15 06:01:31;;;;;;;4.05;3.35;;;16.50;1.00;;;;;;5203352;28;20044;-64
2023/09/15 06:04:05;;;;;;;6.22;4.15;;;16.60;1.00;;;;;;5213971;28;20029;-64
2023/09/15 06:06:36;;;;;;;4.93;4.03;;;16.70;1.00;;;;;;5224366;28;20071;-65
2023/09/15 06:09:09;;;;;;;5.85;3.42;;;16.80;1.00;;;;;;5235469;28;20332;-63
2023/09/15 06:11:40;;;;;;;5.05;3.72;;;17.10;1.00;;;;;;5188900;28;20043;-64
2023/09/15 06:14:13;;;;;;;7.38;3.78;;;17.30;1.00;;;;;;5226637;28;20021;-66
2023/09/15 06:16:45;;;;;;;5.32;4.20;;;17.40;1.00;;;;;;5227159;28;20042;-67
2023/09/15 06:19:16;;;;;;;5.72;3.83;;;17.60;1.00;;;;;;5222520;28;20032;-64
2023/09/15 06:21:48;;;;;;;5.65;3.85;;;17.60;1.00;;;;;;5202541;28;20035;-64
2023/09/15 06:24:19;;;;;;;5.18;3.65;;;17.90;1.00;;;;;;5219621;28;20051;-63
2023/09/15 06:26:52;;;;;;;4.57;3.90;;;18.00;1.00;;;;;;5236659;28;20471;-66
2023/09/15 06:29:23;;;;;;;5.63;4.43;;;17.80;99.90;;;;;;5200289;28;20028;-65
2023/09/15 06:31:55;;;;;;;5.10;3.70;;;17.80;99.90;;;;;;5241334;28;20024;-65
2023/09/15 06:34:29;;;;;;;4.68;3.35;;;17.80;99.90;;;;;;5239515;28;20028;-60
2023/09/15 06:37:01;;;;;;;7.68;4.10;;;17.70;1.00;;;;;;5213041;28;20375;-63
2023/09/15 06:39:35;;;;;;;8.45;4.05;;;17.70;1.00;;;;;;5207307;28;20321;-66
2023/09/15 06:42:08;;;;;;;6.32;4.25;;;17.90;1.00;;;;;;5206164;28;20093;-64
2023/09/15 06:44:39;;;;;;;5.68;4.53;;;18.30;99.90;;;;;;5206748;28;20133;-64
2023/09/15 06:47:11;;;;;;;5.97;4.28;;;18.30;99.90;;;;;;5200524;28;20032;-64
2023/09/15 06:49:43;;;;;;;5.35;4.63;;;18.10;99.90;;;;;;5185868;28;20024;-64
2023/09/15 06:52:14;;;;;;;7.85;4.80;;;17.80;99.90;;;;;;5203267;28;20337;-64
2023/09/15 06:54:45;;;;;;;6.40;4.90;;;17.60;99.90;;;;;;5222225;28;20024;-65
2023/09/15 06:57:18;;;;;;;5.85;4.25;;;17.70;1.00;;;;;;5233055;28;20035;-68
2023/09/15 06:59:51;;;;;;;7.80;4.00;;;17.80;1.00;;;;;;5202142;28;20041;-66
2023/09/15 07:02:22;;;;;;;5.93;3.95;;;18.20;1.00;;;;;;5195681;28;20271;-64
2023/09/15 07:04:56;;;;;;;5.60;3.80;;;18.30;99.90;;;;;;5205857;28;20028;-65
2023/09/15 07:07:27;;;;;;;7.70;4.28;;;18.20;99.90;;;;;;5206433;28;20036;-64
2023/09/15 07:09:58;;;;;;;5.28;3.72;;;18.70;1.00;;;;;;5241632;28;20036;-66
2023/09/15 07:12:30;;;;;;;5.47;4.18;;;19.30;99.90;;;;;;5241083;28;20046;-62
2023/09/15 07:15:04;;;;;;;5.22;3.85;;;19.80;99.90;;;;;;5221761;28;20028;-67
2023/09/15 07:17:37;;;;;;;6.15;4.40;;;20.10;23.10;;;;;;5220662;28;20530;-66
2023/09/15 07:20:09;;;;;;;6.55;4.05;;;20.50;1.30;;;;;;5240743;28;20029;-65
2023/09/15 07:22:40;;;;;;;6.45;3.90;;;20.60;1.00;;;;;;5205966;28;20024;-63
2023/09/15 07:25:12;;;;;;;4.32;3.75;;;20.60;1.00;;;;;;5233781;28;20039;-61
2023/09/15 07:27:46;;;;;;;3.70;3.15;;;20.60;1.00;;;;;;5233977;28;20293;-62
2023/09/15 07:30:17;;;;;;;4.15;3.22;;;20.70;1.00;;;;;;5203334;28;20210;-65
2023/09/15 07:32:48;;;;;;;4.88;3.30;;;21.00;1.00;;;;;;5230185;28;20024;-65
2023/09/15 07:35:22;;;;;;;5.60;3.72;;;21.20;1.00;;;;;;5223469;28;20230;-66
2023/09/15 07:37:54;;;;;;;6.57;4.13;;;20.80;1.00;;;;;;5206974;28;20246;-64
2023/09/15 07:40:25;;;;;;;4.32;3.42;;;20.40;1.00;;;;;;5205395;28;20032;-65
2023/09/15 07:42:56;;;;;;;6.45;4.40;;;20.50;1.00;;;;;;5240209;28;20036;-63
2023/09/15 07:45:27;;;;;;;4.97;3.60;;;21.00;1.00;;;;;;5227647;28;20385;-67
2023/09/15 07:47:59;;;;;;;6.63;4.28;;;20.90;1.00;;;;;;5201531;28;20028;-64
2023/09/15 07:50:33;;;;;;;7.13;4.65;;;21.20;99.90;;;;;;5184848;28;20037;-62
2023/09/15 07:53:04;;;;;;;5.22;4.00;;;21.40;99.90;;;;;;5252525;28;20062;-65
2023/09/15 07:55:36;;;;;;;4.47;3.58;;;21.60;1.00;;;;;;5197407;28;20349;-63
2023/09/15 07:58:08;;;;;;;5.70;4.63;;;22.00;1.00;;;;;;5218117;28;20041;-65
2023/09/15 08:00:40;;;;;;;5.32;4.00;;;22.30;1.00;;;;;;5215289;28;20039;-62
2023/09/15 08:03:11;;;;;;;5.25;4.00;;;22.20;1.00;;;;;;5238977;28;20036;-63
2023/09/15 08:05:42;;;;;;;4.80;4.13;;;22.30;99.90;;;;;;5220875;28;20034;-62
2023/09/15 08:08:16;;;;;;;5.60;3.67;;;22.90;1.00;;;;;;5240103;28;20317;-62
2023/09/15 08:10:49;;;;;;;4.68;4.20;;;22.20;1.00;;;;;;5239445;28;20362;-64
2023/09/15 08:13:21;;;;;;;5.53;4.60;;;22.10;1.00;;;;;;5203542;28;20381;-63
2023/09/15 08:15:52;;;;;;;4.88;3.78;;;22.30;1.00;;;;;;5225372;28;20061;-65
2023/09/15 08:18:24;;;;;;;5.78;4.05;;;22.40;99.90;;;;;;5201374;28;20043;-64
2023/09/15 08:20:55;;;;;;;5.30;3.65;;;22.10;99.90;;;;;;5202799;28;20066;-65
2023/09/15 08:23:27;;;;;;;6.05;3.90;;;22.30;99.90;;;;;;5215287;28;20033;-65
2023/09/15 08:26:01;;;;;;;5.47;3.88;;;22.60;99.90;;;;;;5204813;28;20055;-63
2023/09/15 08:28:32;;;;;;;6.53;4.22;;;22.30;99.90;;;;;;5205413;28;20040;-62
2023/09/15 08:31:03;;;;;;;6.32;4.55;;;21.70;99.90;;;;;;5235989;28;20063;-65
2023/09/15 08:33:35;;;;;;;5.07;3.70;;;21.60;99.90;;;;;;5204539;28;20032;-66
2023/09/15 08:36:06;;;;;;;5.93;3.53;;;22.00;99.90;;;;;;5238995;28;20121;-65
2023/09/15 08:38:38;;;;;;;7.10;3.78;;;22.20;99.90;;;;;;5221196;28;20036;-64
2023/09/15 08:41:21;;;;;;;6.43;4.55;;;22.90;99.90;;;;;;5214126;28;20036;-66
2023/09/15 08:43:52;;;;;;;5.78;3.25;;;23.00;99.90;;;;;;5224478;28;20220;-63
2023/09/15 08:46:25;;;;;;;5.80;3.67;;;23.20;1.00;;;;;;5205386;28;20037;-64
2023/09/15 08:48:58;;;;;;;5.70;3.60;;;23.00;99.90;;;;;;5242937;28;20043;-65
2023/09/15 08:51:31;;;;;;;5.35;3.53;;;23.20;99.90;;;;;;5222937;28;20033;-66
2023/09/15 08:54:03;;;;;;;4.75;3.45;;;22.70;99.90;;;;;;5203489;28;20024;-66
2023/09/15 08:56:35;;;;;;;3.63;3.22;;;23.20;47.20;;;;;;5217219;28;20040;-66
2023/09/15 08:59:08;;;;;;;4.72;3.05;;;23.90;99.90;;;;;;5204439;28;20040;-65
2023/09/15 09:01:40;;;;;;;3.50;2.78;;;24.30;99.90;;;;;;5207101;28;20048;-63
2023/09/15 09:04:14;;;;;;;7.90;4.13;;;24.30;99.90;;;;;;5219620;28;20037;-64
2023/09/15 09:06:49;;;;;;;3.85;3.22;;;23.90;1.00;;;;;;5207026;28;20299;-63
2023/09/15 09:09:22;;;;;;;;;;;24.10;19.30;;;;;;5207599;28;20042;-66
2023/09/15 09:11:53;;;;;;;5.07;3.63;;;24.20;5.80;;;;;;5242725;28;20372;-63
2023/09/15 09:14:25;;;;;;;4.55;3.08;;;24.60;1.00;;;;;;5241179;28;20025;-65
2023/09/15 09:16:56;;;;;;;5.35;3.40;;;24.90;35.70;;;;;;5239703;28;20029;-63
2023/09/15 09:19:42;;;;;;;8.02;3.95;;;25.40;61.40;;;;;;5224122;28;20032;-64
2023/09/15 09:22:22;;;;;;;4.50;3.20;;;25.60;1.00;;;;;;5207619;28;20028;-63
2023/09/15 09:24:57;;;;;;;3.95;2.72;;;25.70;1.00;;;;;;5242471;28;20028;-64
2023/09/15 09:27:33;;;;;;;4.00;2.95;;;25.30;1.00;;;;;;5207774;28;20040;-65
2023/09/15 09:30:04;;;;;;;5.00;3.00;;;25.30;99.90;;;;;;5221450;28;20032;-66
2023/09/15 09:32:39;;;;;;;3.60;2.97;;;25.70;1.00;;;;;;5220398;28;20349;-64
2023/09/15 09:35:12;;;;;;;5.30;3.25;;;25.70;1.00;;;;;;5190710;28;20284;-62
2023/09/15 09:37:47;;;;;;;3.47;3.08;;;25.50;1.00;;;;;;5231844;28;20036;-64
2023/09/15 09:40:21;;;;;;;5.40;3.42;;;25.80;1.00;;;;;;5204526;28;20043;-64
2023/09/15 09:43:00;;;;;;;4.10;3.27;;;25.30;1.00;;;;;;5247134;28;20031;-65
2023/09/15 09:45:31;;;;;;;4.35;3.53;;;25.70;1.00;;;;;;5231806;28;20244;-66
2023/09/15 09:48:04;;;;;;;5.35;4.15;;;25.90;1.00;;;;;;5242010;28;20020;-64
2023/09/15 09:50:35;;;;;;;4.70;3.53;;;25.70;99.90;;;;;;5236313;28;20292;-62
2023/09/15 09:53:10;;;;;;;4.22;3.25;;;25.70;99.90;;;;;;5215232;28;20036;-64
2023/09/15 09:55:45;;;;;;;;;;;26.20;99.90;;;;;;5178963;28;20545;-65
2023/09/15 09:58:21;;;;;;;4.45;3.50;;;27.10;99.90;;;;;;5200943;28;19943;-63
2023/09/15 10:00:52;;;;;;;5.15;3.03;;;27.40;23.00;;;;;;5200762;28;20043;-63
2023/09/15 10:03:24;;;;;;;2.97;2.50;;;28.20;99.90;;;;;;5205838;28;20302;-62
2023/09/15 10:05:57;;;;;;;4.72;2.80;;;28.60;99.90;;;;;;5202102;28;20051;-65
2023/09/15 10:08:29;;;;;;;3.92;3.05;;;29.00;99.90;;;;;;5235469;28;20047;-64
2023/09/15 10:11:04;;;;;;;5.13;3.22;;;29.20;1.00;;;;;;5205799;28;20028;-65
2023/09/15 10:13:36;;;;;;;4.35;2.80;;;29.10;41.90;;;;;;5223002;28;20036;-63
2023/09/15 10:16:08;;;;;;;5.72;2.97;;;29.40;99.90;;;;;;5221257;28;20035;-64
2023/09/15 10:18:40;;;;;;;4.47;2.95;;;29.80;93.40;;;;;;5198736;28;20032;-64
2023/09/15 10:21:11;;;;;;;7.13;3.35;;;29.70;99.90;;;;;;5182857;28;20040;-66
2023/09/15 10:23:45;;;;;;;4.88;2.95;;;29.60;99.90;;;;;;5229297;28;20304;-63
2023/09/15 10:26:19;;;;;;;4.43;3.05;;;29.70;99.90;;;;;;5220708;28;20040;-65
2023/09/15 10:28:51;;;;;;;3.10;2.60;;;30.20;1.00;;;;;;5202476;28;20040;-63
2023/09/15 10:31:23;;;;;;;2.50;2.30;;;30.10;1.00;;;;;;5211249;28;20036;-65
2023/09/15 10:33:54;;;;;;;4.25;2.85;;;30.20;99.90;;;;;;5188668;28;20392;-64
2023/09/15 10:36:29;;;;;;;3.53;2.40;;;30.80;1.00;;;;;;5233612;28;20024;-65
2023/09/15 10:39:14;;;;;;;3.40;2.65;;;32.00;1.00;;;;;;5239283;28;20236;-63
2023/09/15 10:41:45;;;;;;;3.75;2.55;;;32.20;1.00;;;;;;5204807;28;20035;-64
2023/09/15 10:44:29;;;;;;;4.90;2.88;;;31.30;1.00;;;;;;5237638;28;20032;-64
2023/09/15 10:47:15;;;;;;;3.38;2.50;;;30.90;1.00;;;;;;5230296;28;20046;-65
2023/09/15 10:49:54;;;;;;;3.17;2.60;;;31.50;1.00;;;;;;5224180;28;20024;-65
2023/09/15 10:52:33;;;;;;;2.65;2.33;;;32.60;1.00;;;;;;5206204;28;20134;-62
2023/09/15 10:55:07;;;;;;;3.03;2.20;;;34.10;99.90;;;;;;5240677;28;20397;-64
2023/09/15 10:57:39;;;;;;;2.00;1.60;;;34.80;99.90;;;;;;5210596;28;20041;-64
2023/09/15 11:00:11;;;;;;;2.42;2.22;;;34.50;1.00;;;;;;5196133;28;20202;-64
2023/09/15 11:02:43;;;;;;;3.13;1.75;;;33.80;99.90;;;;;;5228294;28;20257;-63
2023/09/15 11:05:14;;;;;;;2.22;1.70;;;34.50;1.00;;;;;;5218200;28;20036;-61
2023/09/15 11:07:50;;;;;;;1.50;1.40;;;35.00;1.00;;;;;;5205751;28;20150;-65
2023/09/15 11:10:37;;;;;;;1.50;1.38;;;35.00;1.00;;;;;;5239858;28;20261;-64
2023/09/15 11:13:08;;;;;;;2.92;1.77;;;34.30;1.00;;;;;;5204774;28;20475;-66
2023/09/15 11:15:40;;;;;;;2.20;1.65;;;34.10;1.00;;;;;;5229201;28;20043;-66
2023/09/15 11:18:15;;;;;;;2.10;1.90;;;34.00;99.90;;;;;;5202352;28;20043;-63
2023/09/15 11:20:48;;;;;;;1.67;1.27;;;34.20;99.90;;;;;;5206160;28;20245;-64
2023/09/15 11:23:25;;;;;;;4.80;1.75;;;35.20;1.00;;;;;;5221815;28;20071;-65
2023/09/15 11:26:05;;;;;;;2.38;1.60;;;36.30;1.00;;;;;;5239840;28;20041;-67
2023/09/15 11:28:37;;;;;;;1.90;1.50;;;35.70;1.00;;;;;;5205741;28;20032;-63
2023/09/15 11:31:09;;;;;;;1.67;1.52;;;35.30;1.00;;;;;;5202149;28;20041;-62
2023/09/15 11:33:42;;;;;;;1.58;1.48;;;36.20;1.00;;;;;;5204452;28;20025;-64
2023/09/15 11:36:18;;;;;;;1.65;1.55;;;36.90;18.30;;;;;;5237538;28;20031;-64
2023/09/15 11:38:52;;;;;;;1.73;1.63;;;36.60;1.00;;;;;;5205110;28;20351;-64
2023/09/15 11:41:34;;;;;;;2.72;1.77;;;36.40;1.00;;;;;;5222696;28;20043;-64
2023/09/15 11:44:08;;;;;;;2.60;1.77;;;36.80;1.00;;;;;;5240029;28;20023;-64
2023/09/15 11:46:42;;;;;;;2.00;1.77;;;36.50;1.00;;;;;;5199038;28;20579;-64
2023/09/15 11:49:18;;;;;;;2.28;1.70;;;36.20;1.00;;;;;;5198271;28;20039;-66
2023/09/15 11:51:50;;;;;;;1.60;1.50;;;36.00;1.00;;;;;;5239256;28;20043;-66
2023/09/15 11:54:23;;;;;;;3.22;2.25;;;36.40;1.00;;;;;;5221046;28;20413;-66
2023/09/15 11:56:56;;;;;;;3.13;2.40;;;36.40;1.00;;;;;;5236101;28;20021;-66
2023/09/15 11:59:30;;;;;;;2.30;2.08;;;36.30;99.90;;;;;;5189322;28;20036;-67
2023/09/15 12:02:02;;;;;;;2.65;1.80;;;36.40;99.90;;;;;;5202572;28;20032;-66
2023/09/15 12:04:33;;;;;;;1.88;1.77;;;36.50;99.90;;;;;;5237977;28;20020;-65
2023/09/15 12:07:05;;;;;;;2.20;1.60;;;36.30;99.90;;;;;;5205313;28;20044;-65
2023/09/15 12:09:40;;;;;;;4.70;2.00;;;36.40;99.90;;;;;;5221887;28;20481;-67
2023/09/15 12:12:16;;;;;;;2.30;1.77;;;35.80;99.90;;;;;;5205811;28;20046;-65
2023/09/15 12:14:47;;;;;;;6.28;1.60;;;34.80;99.90;;;;;;5216514;28;20029;-62
2023/09/15 12:17:18;;;;;;;1.83;1.73;;;35.20;99.90;;;;;;5219497;28;20043;-66
2023/09/15 12:19:56;;;;;;;1.60;1.50;;;34.50;99.90;;;;;;5200495;28;20017;-66
2023/09/15 12:22:52;;;;;;;3.72;1.92;;;34.50;99.90;;;;;;5231632;28;20027;-64
2023/09/15 12:25:23;;;;;;;2.83;1.70;;;35.70;99.90;;;;;;5205471;28;20036;-64
2023/09/15 12:27:57;;;;;;;2.20;2.00;;;37.00;99.90;;;;;;5209073;28;20052;-65
2023/09/15 12:30:28;;;;;;;1.80;1.60;;;37.70;99.90;;;;;;5202151;28;20043;-65
2023/09/15 12:33:00;;;;;;;2.05;1.80;;;38.60;99.90;;;;;;5203716;28;20016;-63
2023/09/15 12:35:39;;;;;;;2.58;2.08;;;38.40;1.00;;;;;;5208324;28;20036;-65
2023/09/15 12:38:11;;;;;;;3.72;2.05;;;39.30;1.00;;;;;;5206218;28;20269;-66
2023/09/15 12:40:44;;;;;;;2.60;2.40;;;38.50;99.90;;;;;;5202514;28;20036;-65
2023/09/15 12:43:17;;;;;;;2.45;1.92;;;37.30;99.90;;;;;;5192427;28;20033;-65
2023/09/15 12:45:48;;;;;;;2.33;2.00;;;38.20;99.90;;;;;;5184996;28;20036;-64
2023/09/15 12:48:24;;;;;;;2.90;2.10;;;38.20;99.90;;;;;;5223341;28;20029;-70
2023/09/15 12:50:56;;;;;;;2.08;1.77;;;37.10;99.90;;;;;;5200783;28;20032;-69
2023/09/15 12:53:27;;;;;;;2.17;1.98;;;36.40;99.90;;;;;;5188272;28;20249;-66
2023/09/15 12:56:00;;;;;;;1.80;1.67;;;36.70;99.90;;;;;;5202134;28;20381;-65
2023/09/15 12:58:31;;;;;;;5.35;2.20;;;36.40;99.90;;;;;;5189622;28;20032;-64
2023/09/15 13:01:02;;;;;;;2.22;2.03;;;34.60;99.90;;;;;;5188231;28;20043;-67
2023/09/15 13:03:34;;;;;;;3.10;1.80;;;33.50;64.40;;;;;;5224855;28;20032;-65
2023/09/15 13:06:06;;;;;;;2.58;1.75;;;33.30;1.00;;;;;;5220911;28;20020;-66
2023/09/15 13:08:37;;;;;;;5.00;1.80;;;32.30;1.00;;;;;;5243460;28;20029;-64
2023/09/15 13:11:08;;;;;;;2.03;1.83;;;31.60;1.00;;;;;;5225157;28;20446;-67
2023/09/15 13:13:39;;;;;;;1.85;1.70;;;30.90;1.00;;;;;;5243432;28;20039;-68
2023/09/15 13:16:10;;;;;;;2.25;1.88;;;31.10;1.00;;;;;;5222218;28;20031;-66
2023/09/15 13:18:42;;;;;;;2.00;1.80;;;31.50;1.00;;;;;;5242975;28;20025;-65
2023/09/15 13:21:15;;;;;;;2.03;1.83;;;31.40;1.00;;;;;;5243889;28;20038;-64